sensor_id;sensor_type;location;lat;lon;timestamp;P1;durP1;ratioP1;P2;durP2;ratioP2
52776;SDS011;38656;54.260;20.822;2022-08-26T00:01:33;25.17;;;9.95;;
52776;SDS011;38656;54.260;20.822;2022-08-26T00:03:59;25.23;;;10.00;;
52776;SDS011;38656;54.260;20.822;2022-08-26T00:06:26;24.92;;;9.85;;
52776;SDS011;38656;54.260;20.822;2022-08-26T00:08:52;21.67;;;9.85;;
52776;SDS011;38656;54.260;20.822;2022-08-26T00:11:19;34.65;;;12.63;;
52776;SDS011;38656;54.260;20.822;2022-08-26T00:13:45;24.05;;;10.95;;
52776;SDS011;38656;54.260;20.822;2022-08-26T00:16:11;21.23;;;10.48;;
52776;SDS011;38656;54.260;20.822;2022-08-26T00:18:37;27.80;;;11.55;;
52776;SDS011;38656;54.260;20.822;2022-08-26T00:21:04;25.45;;;11.43;;
52776;SDS011;38656;54.260;20.822;2022-08-26T00:23:30;23.98;;;10.93;;
52776;SDS011;38656;54.260;20.822;2022-08-26T00:25:56;26.33;;;11.50;;
52776;SDS011;38656;54.260;20.822;2022-08-26T00:28:23;23.77;;;11.30;;
52776;SDS011;38656;54.260;20.822;2022-08-26T00:30:49;35.83;;;11.82;;
52776;SDS011;38656;54.260;20.822;2022-08-26T00:33:15;17.73;;;10.27;;
52776;SDS011;38656;54.260;20.822;2022-08-26T00:35:42;22.42;;;9.43;;
52776;SDS011;38656;54.260;20.822;2022-08-26T00:38:08;33.13;;;11.00;;
52776;SDS011;38656;54.260;20.822;2022-08-26T00:40:36;18.88;;;9.77;;
52776;SDS011;38656;54.260;20.822;2022-08-26T00:43:03;21.85;;;10.30;;
52776;SDS011;38656;54.260;20.822;2022-08-26T00:45:46;22.02;;;9.90;;
52776;SDS011;38656;54.260;20.822;2022-08-26T00:48:14;24.27;;;9.90;;
52776;SDS011;38656;54.260;20.822;2022-08-26T00:50:42;20.45;;;10.52;;
52776;SDS011;38656;54.260;20.822;2022-08-26T00:53:13;24.23;;;11.90;;
52776;SDS011;38656;54.260;20.822;2022-08-26T00:55:47;20.00;;;10.82;;
52776;SDS011;38656;54.260;20.822;2022-08-26T00:58:13;24.40;;;11.07;;
52776;SDS011;38656;54.260;20.822;2022-08-26T01:00:39;18.67;;;11.05;;
52776;SDS011;38656;54.260;20.822;2022-08-26T01:03:05;20.23;;;10.90;;
52776;SDS011;38656;54.260;20.822;2022-08-26T01:05:32;28.45;;;11.50;;
52776;SDS011;38656;54.260;20.822;2022-08-26T01:07:58;24.02;;;11.70;;
52776;SDS011;38656;54.260;20.822;2022-08-26T01:10:25;30.70;;;11.55;;
52776;SDS011;38656;54.260;20.822;2022-08-26T01:12:54;27.48;;;11.85;;
52776;SDS011;38656;54.260;20.822;2022-08-26T01:15:22;19.58;;;10.48;;
52776;SDS011;38656;54.260;20.822;2022-08-26T01:17:49;32.10;;;11.13;;
52776;SDS011;38656;54.260;20.822;2022-08-26T01:25:07;29.77;;;12.88;;
52776;SDS011;38656;54.260;20.822;2022-08-26T01:27:33;25.25;;;12.35;;
52776;SDS011;38656;54.260;20.822;2022-08-26T01:30:01;29.17;;;12.73;;
52776;SDS011;38656;54.260;20.822;2022-08-26T01:32:27;24.90;;;11.27;;
52776;SDS011;38656;54.260;20.822;2022-08-26T01:34:54;16.15;;;10.35;;
52776;SDS011;38656;54.260;20.822;2022-08-26T01:37:25;31.15;;;10.68;;
52776;SDS011;38656;54.260;20.822;2022-08-26T01:39:52;19.83;;;11.60;;
52776;SDS011;38656;54.260;20.822;2022-08-26T01:42:19;19.95;;;11.15;;
52776;SDS011;38656;54.260;20.822;2022-08-26T01:44:48;22.33;;;11.90;;
52776;SDS011;38656;54.260;20.822;2022-08-26T01:47:16;22.95;;;11.57;;
52776;SDS011;38656;54.260;20.822;2022-08-26T01:49:42;21.77;;;11.15;;
52776;SDS011;38656;54.260;20.822;2022-08-26T01:52:09;22.63;;;11.57;;
52776;SDS011;38656;54.260;20.822;2022-08-26T01:54:37;28.13;;;12.57;;
52776;SDS011;38656;54.260;20.822;2022-08-26T01:57:03;30.65;;;12.70;;
52776;SDS011;38656;54.260;20.822;2022-08-26T01:59:29;23.08;;;11.23;;
52776;SDS011;38656;54.260;20.822;2022-08-26T02:01:55;17.88;;;11.18;;
52776;SDS011;38656;54.260;20.822;2022-08-26T02:04:26;31.45;;;12.00;;
52776;SDS011;38656;54.260;20.822;2022-08-26T02:06:53;23.60;;;11.57;;
52776;SDS011;38656;54.260;20.822;2022-08-26T02:09:19;33.95;;;11.50;;
52776;SDS011;38656;54.260;20.822;2022-08-26T02:11:46;27.85;;;11.80;;
52776;SDS011;38656;54.260;20.822;2022-08-26T02:14:16;21.75;;;11.02;;
52776;SDS011;38656;54.260;20.822;2022-08-26T02:16:45;24.77;;;11.73;;
52776;SDS011;38656;54.260;20.822;2022-08-26T02:19:16;23.88;;;11.23;;
52776;SDS011;38656;54.260;20.822;2022-08-26T02:21:42;16.88;;;10.65;;
52776;SDS011;38656;54.260;20.822;2022-08-26T02:24:13;35.25;;;11.65;;
52776;SDS011;38656;54.260;20.822;2022-08-26T02:26:40;27.65;;;10.85;;
52776;SDS011;38656;54.260;20.822;2022-08-26T02:29:19;22.75;;;11.02;;
52776;SDS011;38656;54.260;20.822;2022-08-26T02:31:47;19.73;;;11.43;;
52776;SDS011;38656;54.260;20.822;2022-08-26T02:34:15;21.92;;;11.65;;
52776;SDS011;38656;54.260;20.822;2022-08-26T02:36:44;23.05;;;11.20;;
52776;SDS011;38656;54.260;20.822;2022-08-26T02:39:10;21.40;;;11.82;;
52776;SDS011;38656;54.260;20.822;2022-08-26T02:41:36;16.77;;;10.23;;
52776;SDS011;38656;54.260;20.822;2022-08-26T02:44:03;18.70;;;10.70;;
52776;SDS011;38656;54.260;20.822;2022-08-26T02:46:31;21.73;;;11.65;;
52776;SDS011;38656;54.260;20.822;2022-08-26T02:48:57;17.50;;;11.05;;
52776;SDS011;38656;54.260;20.822;2022-08-26T02:51:23;15.52;;;10.65;;
52776;SDS011;38656;54.260;20.822;2022-08-26T02:53:49;25.23;;;11.25;;
52776;SDS011;38656;54.260;20.822;2022-08-26T02:56:15;22.33;;;10.45;;
52776;SDS011;38656;54.260;20.822;2022-08-26T02:58:41;38.40;;;10.85;;
52776;SDS011;38656;54.260;20.822;2022-08-26T03:01:07;23.45;;;10.45;;
52776;SDS011;38656;54.260;20.822;2022-08-26T03:03:33;19.02;;;10.18;;
52776;SDS011;38656;54.260;20.822;2022-08-26T03:05:59;21.60;;;11.20;;
52776;SDS011;38656;54.260;20.822;2022-08-26T03:08:25;22.27;;;10.88;;
52776;SDS011;38656;54.260;20.822;2022-08-26T03:10:51;21.90;;;11.77;;
52776;SDS011;38656;54.260;20.822;2022-08-26T03:13:17;18.10;;;11.20;;
52776;SDS011;38656;54.260;20.822;2022-08-26T03:15:43;24.10;;;10.77;;
52776;SDS011;38656;54.260;20.822;2022-08-26T03:18:09;32.53;;;11.52;;
52776;SDS011;38656;54.260;20.822;2022-08-26T03:20:35;17.73;;;12.52;;
52776;SDS011;38656;54.260;20.822;2022-08-26T03:23:01;20.90;;;10.23;;
52776;SDS011;38656;54.260;20.822;2022-08-26T03:25:27;21.52;;;11.68;;
52776;SDS011;38656;54.260;20.822;2022-08-26T03:27:53;20.50;;;11.75;;
52776;SDS011;38656;54.260;20.822;2022-08-26T03:30:19;21.30;;;10.88;;
52776;SDS011;38656;54.260;20.822;2022-08-26T03:35:30;13.77;;;9.52;;
52776;SDS011;38656;54.260;20.822;2022-08-26T03:37:57;18.70;;;10.55;;
52776;SDS011;38656;54.260;20.822;2022-08-26T03:40:24;22.75;;;10.32;;
52776;SDS011;38656;54.260;20.822;2022-08-26T03:42:50;18.90;;;10.15;;
52776;SDS011;38656;54.260;20.822;2022-08-26T03:45:17;21.13;;;12.02;;
52776;SDS011;38656;54.260;20.822;2022-08-26T03:47:44;19.08;;;10.60;;
52776;SDS011;38656;54.260;20.822;2022-08-26T03:50:11;21.70;;;10.82;;
52776;SDS011;38656;54.260;20.822;2022-08-26T03:52:38;16.45;;;10.32;;
52776;SDS011;38656;54.260;20.822;2022-08-26T03:55:05;19.02;;;10.50;;
52776;SDS011;38656;54.260;20.822;2022-08-26T03:57:31;15.90;;;9.65;;
52776;SDS011;38656;54.260;20.822;2022-08-26T03:59:57;21.50;;;10.20;;
52776;SDS011;38656;54.260;20.822;2022-08-26T04:02:24;20.02;;;11.25;;
52776;SDS011;38656;54.260;20.822;2022-08-26T04:04:50;17.50;;;10.13;;
52776;SDS011;38656;54.260;20.822;2022-08-26T04:07:16;18.50;;;10.20;;
52776;SDS011;38656;54.260;20.822;2022-08-26T04:09:42;24.10;;;10.57;;
52776;SDS011;38656;54.260;20.822;2022-08-26T04:12:08;17.90;;;10.20;;
52776;SDS011;38656;54.260;20.822;2022-08-26T04:14:35;17.58;;;9.77;;
52776;SDS011;38656;54.260;20.822;2022-08-26T04:17:02;17.50;;;9.60;;
52776;SDS011;38656;54.260;20.822;2022-08-26T04:19:29;17.75;;;10.75;;
52776;SDS011;38656;54.260;20.822;2022-08-26T04:21:55;15.13;;;9.68;;
52776;SDS011;38656;54.260;20.822;2022-08-26T04:24:22;24.25;;;10.60;;
52776;SDS011;38656;54.260;20.822;2022-08-26T04:26:48;23.20;;;9.20;;
52776;SDS011;38656;54.260;20.822;2022-08-26T04:29:16;16.35;;;11.38;;
52776;SDS011;38656;54.260;20.822;2022-08-26T04:31:42;22.48;;;12.13;;
52776;SDS011;38656;54.260;20.822;2022-08-26T04:34:09;13.68;;;11.13;;
52776;SDS011;38656;54.260;20.822;2022-08-26T04:36:35;20.83;;;11.00;;
52776;SDS011;38656;54.260;20.822;2022-08-26T04:39:02;17.05;;;11.07;;
52776;SDS011;38656;54.260;20.822;2022-08-26T04:41:29;16.75;;;11.20;;
52776;SDS011;38656;54.260;20.822;2022-08-26T04:43:55;15.25;;;10.75;;
52776;SDS011;38656;54.260;20.822;2022-08-26T04:46:22;12.88;;;10.93;;
52776;SDS011;38656;54.260;20.822;2022-08-26T04:48:49;14.38;;;10.48;;
52776;SDS011;38656;54.260;20.822;2022-08-26T04:51:16;23.95;;;12.48;;
52776;SDS011;38656;54.260;20.822;2022-08-26T04:53:42;16.88;;;10.13;;
52776;SDS011;38656;54.260;20.822;2022-08-26T04:56:08;13.50;;;10.07;;
52776;SDS011;38656;54.260;20.822;2022-08-26T04:58:35;13.48;;;10.05;;
52776;SDS011;38656;54.260;20.822;2022-08-26T05:01:01;18.48;;;10.30;;
52776;SDS011;38656;54.260;20.822;2022-08-26T05:03:28;12.40;;;10.45;;
52776;SDS011;38656;54.260;20.822;2022-08-26T05:05:54;17.15;;;10.85;;
52776;SDS011;38656;54.260;20.822;2022-08-26T05:08:21;16.80;;;10.40;;
52776;SDS011;38656;54.260;20.822;2022-08-26T05:10:48;16.55;;;9.95;;
52776;SDS011;38656;54.260;20.822;2022-08-26T05:13:15;14.32;;;9.70;;
52776;SDS011;38656;54.260;20.822;2022-08-26T05:15:42;15.00;;;9.48;;
52776;SDS011;38656;54.260;20.822;2022-08-26T05:18:08;16.88;;;8.82;;
52776;SDS011;38656;54.260;20.822;2022-08-26T05:20:42;13.07;;;8.77;;
52776;SDS011;38656;54.260;20.822;2022-08-26T05:23:08;15.85;;;10.18;;
52776;SDS011;38656;54.260;20.822;2022-08-26T05:25:41;14.75;;;10.45;;
52776;SDS011;38656;54.260;20.822;2022-08-26T05:28:08;11.57;;;8.48;;
52776;SDS011;38656;54.260;20.822;2022-08-26T05:30:34;16.75;;;9.13;;
52776;SDS011;38656;54.260;20.822;2022-08-26T05:33:00;21.88;;;9.38;;
52776;SDS011;38656;54.260;20.822;2022-08-26T05:35:28;10.02;;;8.00;;
52776;SDS011;38656;54.260;20.822;2022-08-26T05:38:04;13.82;;;7.65;;
52776;SDS011;38656;54.260;20.822;2022-08-26T05:40:34;17.47;;;7.83;;
52776;SDS011;38656;54.260;20.822;2022-08-26T05:43:03;12.52;;;7.72;;
52776;SDS011;38656;54.260;20.822;2022-08-26T05:45:34;10.80;;;6.80;;
52776;SDS011;38656;54.260;20.822;2022-08-26T05:48:00;10.80;;;7.30;;
52776;SDS011;38656;54.260;20.822;2022-08-26T05:50:26;12.30;;;7.50;;
52776;SDS011;38656;54.260;20.822;2022-08-26T05:52:52;12.10;;;7.03;;
52776;SDS011;38656;54.260;20.822;2022-08-26T05:55:19;19.38;;;8.60;;
52776;SDS011;38656;54.260;20.822;2022-08-26T05:57:45;17.55;;;7.47;;
52776;SDS011;38656;54.260;20.822;2022-08-26T06:00:13;8.90;;;6.72;;
52776;SDS011;38656;54.260;20.822;2022-08-26T06:02:40;13.48;;;7.20;;
52776;SDS011;38656;54.260;20.822;2022-08-26T06:05:06;9.95;;;6.55;;
52776;SDS011;38656;54.260;20.822;2022-08-26T06:07:32;12.40;;;6.55;;
52776;SDS011;38656;54.260;20.822;2022-08-26T06:10:17;7.60;;;6.00;;
52776;SDS011;38656;54.260;20.822;2022-08-26T06:12:43;20.25;;;6.22;;
52776;SDS011;38656;54.260;20.822;2022-08-26T06:15:09;12.65;;;5.95;;
52776;SDS011;38656;54.260;20.822;2022-08-26T06:17:35;13.38;;;5.93;;
52776;SDS011;38656;54.260;20.822;2022-08-26T06:20:02;9.13;;;5.97;;
52776;SDS011;38656;54.260;20.822;2022-08-26T06:22:28;19.40;;;6.53;;
52776;SDS011;38656;54.260;20.822;2022-08-26T06:25:13;10.48;;;5.60;;
52776;SDS011;38656;54.260;20.822;2022-08-26T06:27:58;10.00;;;6.68;;
52776;SDS011;38656;54.260;20.822;2022-08-26T06:30:24;6.85;;;5.60;;
52776;SDS011;38656;54.260;20.822;2022-08-26T06:32:50;12.35;;;6.55;;
52776;SDS011;38656;54.260;20.822;2022-08-26T06:35:16;12.82;;;5.68;;
52776;SDS011;38656;54.260;20.822;2022-08-26T06:37:42;10.10;;;5.40;;
52776;SDS011;38656;54.260;20.822;2022-08-26T06:40:08;12.20;;;6.22;;
52776;SDS011;38656;54.260;20.822;2022-08-26T06:42:34;15.40;;;7.10;;
52776;SDS011;38656;54.260;20.822;2022-08-26T06:45:02;16.40;;;6.25;;
52776;SDS011;38656;54.260;20.822;2022-08-26T06:47:28;14.98;;;6.35;;
52776;SDS011;38656;54.260;20.822;2022-08-26T06:49:54;8.82;;;5.65;;
52776;SDS011;38656;54.260;20.822;2022-08-26T06:52:20;9.82;;;5.85;;
52776;SDS011;38656;54.260;20.822;2022-08-26T06:54:46;12.50;;;6.10;;
52776;SDS011;38656;54.260;20.822;2022-08-26T06:57:13;10.48;;;5.65;;
52776;SDS011;38656;54.260;20.822;2022-08-26T06:59:39;8.18;;;5.53;;
52776;SDS011;38656;54.260;20.822;2022-08-26T07:02:05;11.32;;;5.10;;
52776;SDS011;38656;54.260;20.822;2022-08-26T07:04:32;9.23;;;5.18;;
52776;SDS011;38656;54.260;20.822;2022-08-26T07:06:58;10.77;;;5.72;;
52776;SDS011;38656;54.260;20.822;2022-08-26T07:09:25;11.90;;;5.35;;
52776;SDS011;38656;54.260;20.822;2022-08-26T07:11:52;17.05;;;6.45;;
52776;SDS011;38656;54.260;20.822;2022-08-26T07:14:20;10.65;;;5.07;;
52776;SDS011;38656;54.260;20.822;2022-08-26T07:16:46;9.73;;;5.28;;
52776;SDS011;38656;54.260;20.822;2022-08-26T07:19:12;9.27;;;5.22;;
52776;SDS011;38656;54.260;20.822;2022-08-26T07:21:39;10.77;;;4.95;;
52776;SDS011;38656;54.260;20.822;2022-08-26T07:24:06;17.25;;;6.05;;
52776;SDS011;38656;54.260;20.822;2022-08-26T07:26:33;9.15;;;4.70;;
52776;SDS011;38656;54.260;20.822;2022-08-26T07:28:59;8.00;;;4.55;;
52776;SDS011;38656;54.260;20.822;2022-08-26T07:31:30;6.93;;;4.25;;
52776;SDS011;38656;54.260;20.822;2022-08-26T07:33:58;11.90;;;5.18;;
52776;SDS011;38656;54.260;20.822;2022-08-26T07:36:24;5.80;;;3.97;;
52776;SDS011;38656;54.260;20.822;2022-08-26T07:38:52;9.65;;;4.82;;
52776;SDS011;38656;54.260;20.822;2022-08-26T07:41:20;8.52;;;4.57;;
52776;SDS011;38656;54.260;20.822;2022-08-26T07:43:46;6.82;;;3.67;;
52776;SDS011;38656;54.260;20.822;2022-08-26T07:46:13;9.63;;;4.47;;
52776;SDS011;38656;54.260;20.822;2022-08-26T07:48:43;8.50;;;5.00;;
52776;SDS011;38656;54.260;20.822;2022-08-26T07:51:10;6.75;;;4.35;;
52776;SDS011;38656;54.260;20.822;2022-08-26T07:53:36;6.68;;;3.83;;
52776;SDS011;38656;54.260;20.822;2022-08-26T07:56:03;8.73;;;5.13;;
52776;SDS011;38656;54.260;20.822;2022-08-26T07:58:30;10.88;;;4.90;;
52776;SDS011;38656;54.260;20.822;2022-08-26T08:00:56;12.40;;;4.88;;
52776;SDS011;38656;54.260;20.822;2022-08-26T08:03:22;8.02;;;4.25;;
52776;SDS011;38656;54.260;20.822;2022-08-26T08:05:48;10.27;;;4.78;;
52776;SDS011;38656;54.260;20.822;2022-08-26T08:08:15;15.23;;;4.43;;
52776;SDS011;38656;54.260;20.822;2022-08-26T08:10:42;11.38;;;3.85;;
52776;SDS011;38656;54.260;20.822;2022-08-26T08:13:09;9.50;;;4.15;;
52776;SDS011;38656;54.260;20.822;2022-08-26T08:15:35;10.52;;;4.22;;
52776;SDS011;38656;54.260;20.822;2022-08-26T08:18:01;12.02;;;4.40;;
52776;SDS011;38656;54.260;20.822;2022-08-26T08:20:28;7.82;;;4.32;;
52776;SDS011;38656;54.260;20.822;2022-08-26T08:22:54;7.95;;;4.40;;
52776;SDS011;38656;54.260;20.822;2022-08-26T08:25:21;14.90;;;4.38;;
52776;SDS011;38656;54.260;20.822;2022-08-26T08:27:47;9.30;;;4.70;;
52776;SDS011;38656;54.260;20.822;2022-08-26T08:30:15;9.77;;;4.10;;
52776;SDS011;38656;54.260;20.822;2022-08-26T08:32:43;8.82;;;3.75;;
52776;SDS011;38656;54.260;20.822;2022-08-26T08:35:10;11.82;;;4.28;;
52776;SDS011;38656;54.260;20.822;2022-08-26T08:37:36;7.60;;;3.50;;
52776;SDS011;38656;54.260;20.822;2022-08-26T08:40:03;12.43;;;4.13;;
52776;SDS011;38656;54.260;20.822;2022-08-26T08:50:54;6.30;;;3.42;;
52776;SDS011;38656;54.260;20.822;2022-08-26T08:55:57;7.65;;;3.65;;
52776;SDS011;38656;54.260;20.822;2022-08-26T09:04:07;5.88;;;3.33;;
52776;SDS011;38656;54.260;20.822;2022-08-26T09:06:35;8.85;;;3.28;;
52776;SDS011;38656;54.260;20.822;2022-08-26T09:09:02;13.48;;;3.97;;
52776;SDS011;38656;54.260;20.822;2022-08-26T09:11:28;7.55;;;3.40;;
52776;SDS011;38656;54.260;20.822;2022-08-26T09:13:55;8.13;;;3.70;;
52776;SDS011;38656;54.260;20.822;2022-08-26T09:16:36;9.00;;;3.53;;
52776;SDS011;38656;54.260;20.822;2022-08-26T09:19:11;14.55;;;3.90;;
52776;SDS011;38656;54.260;20.822;2022-08-26T09:21:40;10.00;;;3.25;;
52776;SDS011;38656;54.260;20.822;2022-08-26T09:24:06;6.63;;;2.95;;
52776;SDS011;38656;54.260;20.822;2022-08-26T09:29:26;6.33;;;3.73;;
52776;SDS011;38656;54.260;20.822;2022-08-26T09:31:52;10.13;;;4.13;;
52776;SDS011;38656;54.260;20.822;2022-08-26T09:34:37;8.80;;;4.80;;
52776;SDS011;38656;54.260;20.822;2022-08-26T09:37:16;7.65;;;3.38;;
52776;SDS011;38656;54.260;20.822;2022-08-26T09:40:10;6.82;;;3.50;;
52776;SDS011;38656;54.260;20.822;2022-08-26T09:42:36;12.30;;;3.72;;
52776;SDS011;38656;54.260;20.822;2022-08-26T09:45:04;5.47;;;3.05;;
52776;SDS011;38656;54.260;20.822;2022-08-26T09:50:06;8.00;;;3.58;;
52776;SDS011;38656;54.260;20.822;2022-08-26T09:52:34;7.90;;;2.67;;
52776;SDS011;38656;54.260;20.822;2022-08-26T09:57:43;6.90;;;3.35;;
52776;SDS011;38656;54.260;20.822;2022-08-26T10:00:23;6.55;;;3.30;;
52776;SDS011;38656;54.260;20.822;2022-08-26T10:02:49;8.18;;;3.90;;
52776;SDS011;38656;54.260;20.822;2022-08-26T10:05:17;5.53;;;3.22;;
52776;SDS011;38656;54.260;20.822;2022-08-26T10:07:48;11.38;;;3.50;;
52776;SDS011;38656;54.260;20.822;2022-08-26T10:10:25;11.48;;;3.80;;
52776;SDS011;38656;54.260;20.822;2022-08-26T10:12:55;12.13;;;3.97;;
52776;SDS011;38656;54.260;20.822;2022-08-26T10:15:22;7.72;;;3.35;;
52776;SDS011;38656;54.260;20.822;2022-08-26T10:17:54;9.85;;;3.00;;
52776;SDS011;38656;54.260;20.822;2022-08-26T10:20:24;4.68;;;3.70;;
52776;SDS011;38656;54.260;20.822;2022-08-26T10:25:36;6.50;;;3.20;;
52776;SDS011;38656;54.260;20.822;2022-08-26T10:30:44;11.52;;;4.32;;
52776;SDS011;38656;54.260;20.822;2022-08-26T10:33:12;6.38;;;3.90;;
52776;SDS011;38656;54.260;20.822;2022-08-26T10:35:51;7.57;;;3.92;;
52776;SDS011;38656;54.260;20.822;2022-08-26T10:38:20;5.05;;;3.25;;
52776;SDS011;38656;54.260;20.822;2022-08-26T10:43:34;4.82;;;2.70;;
52776;SDS011;38656;54.260;20.822;2022-08-26T10:46:02;6.95;;;3.60;;
52776;SDS011;38656;54.260;20.822;2022-08-26T10:51:01;13.90;;;4.57;;
52776;SDS011;38656;54.260;20.822;2022-08-26T10:53:51;4.65;;;3.58;;
52776;SDS011;38656;54.260;20.822;2022-08-26T11:01:28;10.95;;;3.55;;
52776;SDS011;38656;54.260;20.822;2022-08-26T11:06:32;13.45;;;4.05;;
52776;SDS011;38656;54.260;20.822;2022-08-26T11:09:00;7.25;;;3.58;;
52776;SDS011;38656;54.260;20.822;2022-08-26T11:16:47;19.35;;;4.43;;
52776;SDS011;38656;54.260;20.822;2022-08-26T11:22:02;9.32;;;3.90;;
52776;SDS011;38656;54.260;20.822;2022-08-26T11:30:07;14.35;;;3.20;;
52776;SDS011;38656;54.260;20.822;2022-08-26T11:35:05;12.70;;;4.95;;
52776;SDS011;38656;54.260;20.822;2022-08-26T11:37:35;6.25;;;3.45;;
52776;SDS011;38656;54.260;20.822;2022-08-26T11:40:07;7.25;;;3.50;;
52776;SDS011;38656;54.260;20.822;2022-08-26T11:42:43;5.93;;;3.28;;
52776;SDS011;38656;54.260;20.822;2022-08-26T11:47:39;6.13;;;3.33;;
52776;SDS011;38656;54.260;20.822;2022-08-26T11:50:22;8.05;;;3.95;;
52776;SDS011;38656;54.260;20.822;2022-08-26T11:52:59;8.10;;;3.80;;
52776;SDS011;38656;54.260;20.822;2022-08-26T11:55:35;19.10;;;3.90;;
52776;SDS011;38656;54.260;20.822;2022-08-26T11:58:06;9.23;;;3.58;;
52776;SDS011;38656;54.260;20.822;2022-08-26T12:00:45;12.07;;;3.70;;
52776;SDS011;38656;54.260;20.822;2022-08-26T12:03:15;7.40;;;3.30;;
52776;SDS011;38656;54.260;20.822;2022-08-26T12:05:43;18.10;;;3.83;;
52776;SDS011;38656;54.260;20.822;2022-08-26T12:08:10;9.32;;;3.67;;
52776;SDS011;38656;54.260;20.822;2022-08-26T12:10:37;9.73;;;3.30;;
52776;SDS011;38656;54.260;20.822;2022-08-26T12:13:04;11.77;;;4.10;;
52776;SDS011;38656;54.260;20.822;2022-08-26T12:15:31;8.75;;;3.50;;
52776;SDS011;38656;54.260;20.822;2022-08-26T12:18:15;7.28;;;3.40;;
52776;SDS011;38656;54.260;20.822;2022-08-26T12:20:42;7.03;;;3.75;;
52776;SDS011;38656;54.260;20.822;2022-08-26T12:25:51;17.35;;;4.05;;
52776;SDS011;38656;54.260;20.822;2022-08-26T12:28:18;13.20;;;3.20;;
52776;SDS011;38656;54.260;20.822;2022-08-26T12:31:04;11.30;;;3.65;;
52776;SDS011;38656;54.260;20.822;2022-08-26T12:33:32;6.03;;;3.78;;
52776;SDS011;38656;54.260;20.822;2022-08-26T12:36:00;8.88;;;3.78;;
52776;SDS011;38656;54.260;20.822;2022-08-26T12:38:26;8.05;;;3.08;;
52776;SDS011;38656;54.260;20.822;2022-08-26T12:40:55;9.75;;;3.75;;
52776;SDS011;38656;54.260;20.822;2022-08-26T12:43:36;11.38;;;3.53;;
52776;SDS011;38656;54.260;20.822;2022-08-26T12:46:03;7.30;;;3.20;;
52776;SDS011;38656;54.260;20.822;2022-08-26T12:48:31;8.45;;;3.70;;
52776;SDS011;38656;54.260;20.822;2022-08-26T12:50:57;8.63;;;4.15;;
52776;SDS011;38656;54.260;20.822;2022-08-26T12:53:25;9.07;;;3.78;;
52776;SDS011;38656;54.260;20.822;2022-08-26T12:55:55;11.15;;;3.67;;
52776;SDS011;38656;54.260;20.822;2022-08-26T12:58:23;5.03;;;2.85;;
52776;SDS011;38656;54.260;20.822;2022-08-26T13:00:57;9.27;;;4.22;;
52776;SDS011;38656;54.260;20.822;2022-08-26T13:03:42;13.90;;;3.60;;
52776;SDS011;38656;54.260;20.822;2022-08-26T13:08:38;14.35;;;3.45;;
52776;SDS011;38656;54.260;20.822;2022-08-26T13:11:56;9.50;;;3.25;;
52776;SDS011;38656;54.260;20.822;2022-08-26T13:14:04;9.38;;;3.72;;
52776;SDS011;38656;54.260;20.822;2022-08-26T13:16:31;10.88;;;3.17;;
52776;SDS011;38656;54.260;20.822;2022-08-26T13:18:58;9.10;;;3.47;;
52776;SDS011;38656;54.260;20.822;2022-08-26T13:21:26;8.65;;;3.92;;
52776;SDS011;38656;54.260;20.822;2022-08-26T13:23:53;7.15;;;3.08;;
52776;SDS011;38656;54.260;20.822;2022-08-26T13:26:19;6.68;;;3.33;;
52776;SDS011;38656;54.260;20.822;2022-08-26T13:28:46;9.38;;;2.85;;
52776;SDS011;38656;54.260;20.822;2022-08-26T13:31:12;6.85;;;3.10;;
52776;SDS011;38656;54.260;20.822;2022-08-26T13:33:39;7.90;;;3.00;;
52776;SDS011;38656;54.260;20.822;2022-08-26T13:36:05;4.93;;;2.55;;
52776;SDS011;38656;54.260;20.822;2022-08-26T13:38:31;9.77;;;2.38;;
52776;SDS011;38656;54.260;20.822;2022-08-26T13:40:58;4.47;;;2.28;;
52776;SDS011;38656;54.260;20.822;2022-08-26T13:43:25;4.55;;;2.83;;
52776;SDS011;38656;54.260;20.822;2022-08-26T13:45:52;6.30;;;3.05;;
52776;SDS011;38656;54.260;20.822;2022-08-26T13:48:18;8.65;;;3.15;;
52776;SDS011;38656;54.260;20.822;2022-08-26T13:50:45;5.70;;;2.42;;
52776;SDS011;38656;54.260;20.822;2022-08-26T13:53:11;11.85;;;3.20;;
52776;SDS011;38656;54.260;20.822;2022-08-26T13:55:38;7.03;;;2.88;;
52776;SDS011;38656;54.260;20.822;2022-08-26T13:58:05;5.20;;;2.90;;
52776;SDS011;38656;54.260;20.822;2022-08-26T14:00:32;11.70;;;2.97;;
52776;SDS011;38656;54.260;20.822;2022-08-26T14:02:58;7.05;;;3.63;;
52776;SDS011;38656;54.260;20.822;2022-08-26T14:05:25;7.65;;;3.25;;
52776;SDS011;38656;54.260;20.822;2022-08-26T14:07:51;9.88;;;3.35;;
52776;SDS011;38656;54.260;20.822;2022-08-26T14:10:17;5.63;;;3.22;;
52776;SDS011;38656;54.260;20.822;2022-08-26T14:12:43;9.20;;;3.53;;
52776;SDS011;38656;54.260;20.822;2022-08-26T14:15:10;11.95;;;3.88;;
52776;SDS011;38656;54.260;20.822;2022-08-26T14:17:37;7.68;;;2.97;;
52776;SDS011;38656;54.260;20.822;2022-08-26T14:20:03;6.32;;;2.88;;
52776;SDS011;38656;54.260;20.822;2022-08-26T14:22:30;11.45;;;3.35;;
52776;SDS011;38656;54.260;20.822;2022-08-26T14:24:57;11.82;;;3.70;;
52776;SDS011;38656;54.260;20.822;2022-08-26T14:27:23;5.32;;;2.80;;
52776;SDS011;38656;54.260;20.822;2022-08-26T14:29:49;6.05;;;3.00;;
52776;SDS011;38656;54.260;20.822;2022-08-26T14:32:34;12.85;;;3.58;;
52776;SDS011;38656;54.260;20.822;2022-08-26T14:35:00;16.23;;;3.03;;
52776;SDS011;38656;54.260;20.822;2022-08-26T14:37:26;6.68;;;2.83;;
52776;SDS011;38656;54.260;20.822;2022-08-26T14:39:52;4.55;;;2.95;;
52776;SDS011;38656;54.260;20.822;2022-08-26T14:42:20;8.00;;;2.42;;
52776;SDS011;38656;54.260;20.822;2022-08-26T14:44:47;7.13;;;2.70;;
52776;SDS011;38656;54.260;20.822;2022-08-26T14:47:15;9.25;;;3.17;;
52776;SDS011;38656;54.260;20.822;2022-08-26T14:49:41;6.53;;;2.80;;
52776;SDS011;38656;54.260;20.822;2022-08-26T14:52:08;5.80;;;2.58;;
52776;SDS011;38656;54.260;20.822;2022-08-26T14:54:34;8.95;;;3.03;;
52776;SDS011;38656;54.260;20.822;2022-08-26T14:57:02;7.88;;;2.67;;
52776;SDS011;38656;54.260;20.822;2022-08-26T14:59:33;6.20;;;2.58;;
52776;SDS011;38656;54.260;20.822;2022-08-26T15:01:59;8.55;;;3.15;;
52776;SDS011;38656;54.260;20.822;2022-08-26T15:04:25;4.38;;;3.05;;
52776;SDS011;38656;54.260;20.822;2022-08-26T15:06:52;7.13;;;3.65;;
52776;SDS011;38656;54.260;20.822;2022-08-26T15:09:18;12.43;;;3.17;;
52776;SDS011;38656;54.260;20.822;2022-08-26T15:11:44;9.73;;;3.67;;
52776;SDS011;38656;54.260;20.822;2022-08-26T15:14:10;7.82;;;3.13;;
52776;SDS011;38656;54.260;20.822;2022-08-26T15:16:37;6.32;;;3.58;;
52776;SDS011;38656;54.260;20.822;2022-08-26T15:19:03;6.10;;;3.83;;
52776;SDS011;38656;54.260;20.822;2022-08-26T15:21:31;9.27;;;3.30;;
52776;SDS011;38656;54.260;20.822;2022-08-26T15:23:57;11.98;;;3.28;;
52776;SDS011;38656;54.260;20.822;2022-08-26T15:26:24;12.63;;;3.50;;
52776;SDS011;38656;54.260;20.822;2022-08-26T15:28:50;12.63;;;3.83;;
52776;SDS011;38656;54.260;20.822;2022-08-26T15:31:20;8.32;;;3.30;;
52776;SDS011;38656;54.260;20.822;2022-08-26T15:33:50;12.30;;;2.92;;
52776;SDS011;38656;54.260;20.822;2022-08-26T15:36:16;7.50;;;3.42;;
52776;SDS011;38656;54.260;20.822;2022-08-26T15:38:42;9.85;;;3.00;;
52776;SDS011;38656;54.260;20.822;2022-08-26T15:41:09;5.40;;;2.85;;
52776;SDS011;38656;54.260;20.822;2022-08-26T15:43:36;10.00;;;4.03;;